createdAt,value
2018-07-30T00:01:22.506Z,15.15
2018-07-30T00:03:51.017Z,15.80
2018-07-30T00:06:19.769Z,15.00
2018-07-30T00:08:48.241Z,14.90
2018-07-30T00:11:16.717Z,15.10
2018-07-30T00:13:45.485Z,16.00
2018-07-30T00:16:13.912Z,16.62
2018-07-30T00:18:42.358Z,15.48
2018-07-30T00:21:10.929Z,16.20
2018-07-30T00:23:39.613Z,14.78
2018-07-30T00:26:08.153Z,17.65
2018-07-30T00:28:36.701Z,15.68
2018-07-30T00:31:05.143Z,15.03
2018-07-30T00:33:33.609Z,16.20
2018-07-30T00:36:03.135Z,13.75
2018-07-30T00:38:31.581Z,16.62
2018-07-30T00:41:00.316Z,15.08
2018-07-30T00:43:29.153Z,14.53
2018-07-30T00:45:57.587Z,15.78
2018-07-30T00:48:26.127Z,14.15
2018-07-30T00:50:54.199Z,15.72
2018-07-30T00:53:22.661Z,14.18
2018-07-30T00:55:50.281Z,14.63
2018-07-30T00:58:19.705Z,15.48
2018-07-30T01:00:51.124Z,15.83
2018-07-30T01:03:19.585Z,14.40
2018-07-30T01:05:48.138Z,13.93
2018-07-30T01:08:16.577Z,15.93
2018-07-30T01:10:45.041Z,14.00
2018-07-30T01:13:13.584Z,14.25
2018-07-30T01:15:42.553Z,15.88
2018-07-30T01:18:11.235Z,15.58
2018-07-30T01:20:40.392Z,14.28
2018-07-30T01:23:09.462Z,15.68
2018-07-30T01:25:38.317Z,15.53
2018-07-30T01:28:07.309Z,16.20
2018-07-30T01:30:35.757Z,14.55
2018-07-30T01:33:04.350Z,16.00
2018-07-30T01:35:33.395Z,14.80
2018-07-30T01:38:01.978Z,15.50
2018-07-30T01:40:30.442Z,14.58
2018-07-30T01:42:59.483Z,14.40
2018-07-30T01:45:27.962Z,15.50
2018-07-30T01:47:56.437Z,13.95
2018-07-30T01:50:25.123Z,13.18
2018-07-30T01:52:53.579Z,13.75
2018-07-30T01:55:22.118Z,13.90
2018-07-30T01:57:50.877Z,17.50
2018-07-30T02:00:19.333Z,15.95
2018-07-30T02:02:47.793Z,16.93
2018-07-30T02:05:16.977Z,16.40
2018-07-30T02:07:45.548Z,16.93
2018-07-30T02:10:13.986Z,16.57
2018-07-30T02:12:43.037Z,16.12
2018-07-30T02:15:14.494Z,17.00
2018-07-30T02:17:42.962Z,15.93
2018-07-30T02:20:11.919Z,15.10
2018-07-30T02:22:40.369Z,16.48
2018-07-30T02:25:09.433Z,18.07
2018-07-30T02:27:38.275Z,15.88
2018-07-30T02:30:07.998Z,13.75
2018-07-30T02:32:36.838Z,15.25
2018-07-30T02:35:07.657Z,15.30
2018-07-30T02:37:36.250Z,13.35
2018-07-30T02:40:05.529Z,13.48
2018-07-30T02:42:34.994Z,13.80
2018-07-30T02:45:03.629Z,13.25
2018-07-30T02:47:32.149Z,13.65
2018-07-30T02:50:01.359Z,13.13
2018-07-30T02:52:29.865Z,13.95
2018-07-30T02:54:58.397Z,13.40
2018-07-30T02:57:27.431Z,14.38
2018-07-30T02:59:55.985Z,14.15
2018-07-30T03:02:24.458Z,14.78
2018-07-30T03:04:53.417Z,17.95
2018-07-30T03:07:21.857Z,14.00
2018-07-30T03:09:50.371Z,14.68
2018-07-30T03:12:19.527Z,14.78
2018-07-30T03:14:48.047Z,15.70
2018-07-30T03:17:16.794Z,15.25
2018-07-30T03:19:45.835Z,16.00
2018-07-30T03:22:14.409Z,17.27
2018-07-30T03:24:42.892Z,15.40
2018-07-30T03:27:11.561Z,15.78
2018-07-30T03:29:40.105Z,17.17
2018-07-30T03:32:08.585Z,17.20
2018-07-30T03:34:38.261Z,17.90
2018-07-30T03:37:06.710Z,18.45
2018-07-30T03:39:35.297Z,21.27
2018-07-30T03:42:04.366Z,18.23
2018-07-30T03:44:32.944Z,17.45
2018-07-30T03:47:01.433Z,18.50
2018-07-30T03:49:30.089Z,18.27
2018-07-30T03:51:58.682Z,21.57
2018-07-30T03:54:27.229Z,17.37
2018-07-30T03:56:55.855Z,16.73
2018-07-30T03:59:24.594Z,17.07
2018-07-30T04:01:53.074Z,16.35
2018-07-30T04:04:22.169Z,17.35
2018-07-30T04:06:50.692Z,17.05
2018-07-30T04:09:19.206Z,15.53
2018-07-30T04:11:47.861Z,18.87
2018-07-30T04:14:16.345Z,17.35
2018-07-30T04:16:50.220Z,16.90
2018-07-30T04:19:19.209Z,18.55
2018-07-30T04:21:47.777Z,15.85
2018-07-30T04:24:16.577Z,17.05
2018-07-30T04:26:46.334Z,16.60
2018-07-30T04:29:15.505Z,16.52
2018-07-30T04:31:44.578Z,16.17
2018-07-30T04:34:13.045Z,18.40
2018-07-30T04:36:41.491Z,15.75
2018-07-30T04:39:13.448Z,16.67
2018-07-30T04:41:42.417Z,16.00
2018-07-30T04:44:10.915Z,16.35
2018-07-30T04:46:39.578Z,17.45
2018-07-30T04:49:08.043Z,16.90
2018-07-30T04:51:37.132Z,16.75
2018-07-30T04:54:06.281Z,15.10
2018-07-30T04:56:35.068Z,15.23
2018-07-30T04:59:04.071Z,16.25
2018-07-30T05:01:33.357Z,16.02
2018-07-30T05:04:01.818Z,14.68
2018-07-30T05:06:30.286Z,16.15
2018-07-30T05:08:58.914Z,15.32
2018-07-30T05:11:27.388Z,16.25
2018-07-30T05:13:55.833Z,15.23
2018-07-30T05:16:24.795Z,15.70
2018-07-30T05:18:53.264Z,16.97
2018-07-30T05:21:21.721Z,15.35
2018-07-30T05:23:50.635Z,16.07
2018-07-30T05:26:19.061Z,15.35
2018-07-30T05:28:47.510Z,20.45
2018-07-30T05:31:16.305Z,15.70
2018-07-30T05:33:44.777Z,14.20
2018-07-30T05:36:13.315Z,16.02
2018-07-30T05:38:42.102Z,13.50
2018-07-30T05:41:10.551Z,14.68
2018-07-30T05:43:39.001Z,12.93
2018-07-30T05:46:07.763Z,14.13
2018-07-30T05:48:36.207Z,13.03
2018-07-30T05:51:04.684Z,15.18
2018-07-30T05:53:33.480Z,12.18
2018-07-30T05:56:01.909Z,13.48
2018-07-30T05:58:30.365Z,12.00
2018-07-30T06:00:59.678Z,11.88
2018-07-30T06:03:28.957Z,12.10
2018-07-30T06:05:57.398Z,13.85
2018-07-30T06:08:26.327Z,12.85
2018-07-30T06:10:54.785Z,12.75
2018-07-30T06:13:23.294Z,13.05
2018-07-30T06:15:51.949Z,12.40
2018-07-30T06:18:20.417Z,13.50
2018-07-30T06:20:49.039Z,12.45
2018-07-30T06:23:18.131Z,12.07
2018-07-30T06:25:46.599Z,11.85
2018-07-30T06:28:15.070Z,12.25
2018-07-30T06:30:43.820Z,13.58
2018-07-30T06:33:12.370Z,12.82
2018-07-30T06:35:41.034Z,12.50
2018-07-30T06:38:09.883Z,11.83
2018-07-30T06:40:38.364Z,11.40
2018-07-30T06:43:06.804Z,13.53
2018-07-30T06:45:35.646Z,13.00
2018-07-30T06:48:04.171Z,13.55
2018-07-30T06:50:32.601Z,13.25
2018-07-30T06:53:01.390Z,12.20
2018-07-30T06:55:30.817Z,11.70
2018-07-30T06:58:00.161Z,14.63
2018-07-30T07:00:30.369Z,12.03
2018-07-30T07:02:58.869Z,13.50
2018-07-30T07:05:27.851Z,14.78
2018-07-30T07:07:56.623Z,11.33
2018-07-30T07:10:25.185Z,18.07
2018-07-30T07:12:53.687Z,13.90
2018-07-30T07:15:22.326Z,15.03
2018-07-30T07:17:50.831Z,12.05
2018-07-30T07:20:19.431Z,12.58
2018-07-30T07:22:48.324Z,13.32
2018-07-30T07:25:16.858Z,12.68
2018-07-30T07:27:45.584Z,11.88
2018-07-30T07:30:14.785Z,12.30
2018-07-30T07:32:43.545Z,11.60
2018-07-30T07:35:12.670Z,16.27
2018-07-30T07:37:41.893Z,13.38
2018-07-30T07:40:10.402Z,14.05
2018-07-30T07:42:38.907Z,12.98
2018-07-30T07:45:08.172Z,13.03
2018-07-30T07:47:37.343Z,13.08
2018-07-30T07:50:06.448Z,12.98
2018-07-30T07:52:35.237Z,12.93
2018-07-30T07:55:04.665Z,11.95
2018-07-30T07:57:34.212Z,11.85
2018-07-30T08:00:03.566Z,12.28
2018-07-30T08:02:32.098Z,10.88
2018-07-30T08:05:01.472Z,12.53
2018-07-30T08:07:30.537Z,10.68
2018-07-30T08:09:58.985Z,10.98
2018-07-30T08:12:27.434Z,13.78
2018-07-30T08:14:56.624Z,11.95
2018-07-30T08:17:25.065Z,14.43
2018-07-30T08:19:53.542Z,16.10
2018-07-30T08:22:22.574Z,10.82
2018-07-30T08:24:51.022Z,10.98
2018-07-30T08:27:19.486Z,10.53
2018-07-30T08:29:48.458Z,12.90
2018-07-30T08:32:17.321Z,14.47
2018-07-30T08:34:45.802Z,12.33
2018-07-30T08:37:15.077Z,9.68
2018-07-30T08:39:43.533Z,10.72
2018-07-30T08:42:12.058Z,13.93
2018-07-30T08:44:41.123Z,10.25
2018-07-30T08:47:09.868Z,13.98
2018-07-30T08:49:38.682Z,12.25
2018-07-30T08:52:07.798Z,10.90
2018-07-30T08:54:36.373Z,12.00
2018-07-30T08:57:04.908Z,12.40
2018-07-30T08:59:33.855Z,10.53
2018-07-30T09:02:02.415Z,12.00
2018-07-30T09:04:30.897Z,11.20
2018-07-30T09:06:59.561Z,13.43
2018-07-30T09:09:28.011Z,10.50
2018-07-30T09:11:56.489Z,11.33
2018-07-30T09:14:25.134Z,14.45
2018-07-30T09:16:53.588Z,12.10
2018-07-30T09:19:22.126Z,8.45
2018-07-30T09:21:51.401Z,8.78
2018-07-30T09:24:19.840Z,8.38
2018-07-30T09:26:48.345Z,8.80
2018-07-30T09:29:17.165Z,8.78
2018-07-30T09:31:45.615Z,8.75
2018-07-30T09:34:14.083Z,8.75
2018-07-30T09:36:43.212Z,10.35
2018-07-30T09:39:12.659Z,10.00
2018-07-30T09:41:41.157Z,9.88
2018-07-30T09:44:10.497Z,8.70
2018-07-30T09:46:38.941Z,9.38
2018-07-30T09:49:07.465Z,11.38
2018-07-30T09:51:37.165Z,10.95
2018-07-30T09:54:06.351Z,9.15
2018-07-30T09:56:35.107Z,9.03
2018-07-30T09:59:03.809Z,9.30
2018-07-30T10:01:32.241Z,11.22
2018-07-30T10:04:01.317Z,10.65
2018-07-30T10:06:30.331Z,10.82
2018-07-30T10:08:58.873Z,7.78
2018-07-30T10:11:27.607Z,8.33
2018-07-30T10:13:56.208Z,11.40
2018-07-30T10:16:24.673Z,12.80
2018-07-30T10:18:53.242Z,8.13
2018-07-30T10:21:22.008Z,7.58
2018-07-30T10:23:50.476Z,8.05
2018-07-30T10:26:18.923Z,7.92
2018-07-30T10:28:48.068Z,10.78
2018-07-30T10:31:16.645Z,10.72
2018-07-30T10:33:45.086Z,7.70
2018-07-30T10:36:13.809Z,9.23
2018-07-30T10:38:42.385Z,11.33
2018-07-30T10:41:10.932Z,7.85
2018-07-30T10:43:39.923Z,9.50
2018-07-30T10:46:09.093Z,8.28
2018-07-30T10:48:37.560Z,12.00
2018-07-30T10:51:06.225Z,9.10
2018-07-30T10:53:34.975Z,9.40
2018-07-30T10:56:03.496Z,8.90
2018-07-30T10:58:32.589Z,9.00
2018-07-30T11:01:01.108Z,9.80
2018-07-30T11:03:30.134Z,12.50
2018-07-30T11:05:58.757Z,12.45
2018-07-30T11:08:27.458Z,9.90
2018-07-30T11:10:55.983Z,11.57
2018-07-30T11:13:24.861Z,11.78
2018-07-30T11:15:53.450Z,10.28
2018-07-30T11:18:22.246Z,10.38
2018-07-30T11:20:51.377Z,12.45
2018-07-30T11:23:19.897Z,12.00
2018-07-30T11:25:48.396Z,12.20
2018-07-30T11:28:17.142Z,10.05
2018-07-30T11:30:46.221Z,10.70
2018-07-30T11:33:14.894Z,13.98
2018-07-30T11:35:43.796Z,11.75
2018-07-30T11:38:12.261Z,9.25
2018-07-30T11:40:40.804Z,11.83
2018-07-30T11:43:09.601Z,10.63
2018-07-30T11:45:38.105Z,9.55
2018-07-30T11:48:06.642Z,12.05
2018-07-30T11:50:35.361Z,12.70
2018-07-30T11:53:03.876Z,8.48
2018-07-30T11:55:32.337Z,14.68
2018-07-30T11:58:01.646Z,8.38
2018-07-30T12:00:30.613Z,12.23
2018-07-30T12:02:59.053Z,10.93
2018-07-30T12:05:27.689Z,8.48
2018-07-30T12:07:56.329Z,15.15
2018-07-30T12:10:24.832Z,11.53
2018-07-30T12:12:54.073Z,8.23
2018-07-30T12:15:22.529Z,9.93
2018-07-30T12:17:51.072Z,9.63
2018-07-30T12:20:20.166Z,10.95
2018-07-30T12:22:48.972Z,10.65
2018-07-30T12:25:17.439Z,14.30
2018-07-30T12:27:46.120Z,9.98
2018-07-30T12:30:14.764Z,8.95
2018-07-30T12:32:43.189Z,12.15
2018-07-30T12:35:12.619Z,9.13
2018-07-30T12:37:41.161Z,10.28
2018-07-30T12:40:09.605Z,11.53
2018-07-30T12:42:38.463Z,12.30
2018-07-30T12:45:07.048Z,13.10
2018-07-30T12:47:35.521Z,10.23
2018-07-30T12:50:04.476Z,8.25
2018-07-30T12:52:33.097Z,8.98
2018-07-30T12:55:01.525Z,13.35
2018-07-30T12:57:30.467Z,14.70
2018-07-30T12:59:58.947Z,8.10
2018-07-30T13:02:27.427Z,11.90
2018-07-30T13:04:56.998Z,9.98
2018-07-30T13:07:25.465Z,12.40
2018-07-30T13:09:54.161Z,11.45
2018-07-30T13:12:23.132Z,11.20
2018-07-30T13:14:51.598Z,12.60
2018-07-30T13:17:20.053Z,11.75
2018-07-30T13:19:48.725Z,11.65
2018-07-30T13:22:17.213Z,10.28
2018-07-30T13:24:45.725Z,10.32
2018-07-30T13:27:14.384Z,9.18
2018-07-30T13:29:42.887Z,11.35
2018-07-30T13:32:11.449Z,10.72
2018-07-30T13:34:40.389Z,11.25
2018-07-30T13:37:08.849Z,10.30
2018-07-30T13:39:37.385Z,10.25
2018-07-30T13:42:06.190Z,9.35
2018-07-30T13:44:34.694Z,8.93
2018-07-30T13:47:03.236Z,13.18
2018-07-30T13:49:31.909Z,8.43
2018-07-30T13:52:00.335Z,9.83
2018-07-30T13:54:30.055Z,13.35
2018-07-30T13:56:59.838Z,8.23
2018-07-30T13:59:28.316Z,10.75
2018-07-30T14:01:56.873Z,10.35
2018-07-30T14:04:25.469Z,9.93
2018-07-30T14:06:53.990Z,8.83
2018-07-30T14:09:22.937Z,8.73
2018-07-30T14:11:51.471Z,9.58
2018-07-30T14:14:20.090Z,11.18
2018-07-30T14:16:48.561Z,7.37
2018-07-30T14:19:17.387Z,9.53
2018-07-30T14:21:45.819Z,9.15
2018-07-30T14:24:14.445Z,10.15
2018-07-30T14:26:43.386Z,7.50
2018-07-30T14:29:11.899Z,8.68
2018-07-30T14:31:40.513Z,8.40
2018-07-30T14:34:09.077Z,7.37
2018-07-30T14:36:37.625Z,7.42
2018-07-30T14:39:08.677Z,11.43
2018-07-30T14:41:38.020Z,9.60
2018-07-30T14:44:06.641Z,12.18
2018-07-30T14:46:36.100Z,6.75
2018-07-30T14:49:04.775Z,8.73
2018-07-30T14:51:33.283Z,8.33
2018-07-30T14:54:02.175Z,9.53
2018-07-30T14:56:30.993Z,8.43
2018-07-30T14:58:59.939Z,9.35
2018-07-30T15:01:28.525Z,9.60
2018-07-30T15:03:57.039Z,7.33
2018-07-30T15:06:25.565Z,7.37
2018-07-30T15:08:55.513Z,10.75
2018-07-30T15:11:24.112Z,7.00
2018-07-30T15:13:52.690Z,6.10
2018-07-30T15:16:22.107Z,6.90
2018-07-30T15:18:50.628Z,7.80
2018-07-30T15:21:19.114Z,8.03
2018-07-30T15:23:47.842Z,8.60
2018-07-30T15:26:16.810Z,9.08
2018-07-30T15:28:45.278Z,8.53
2018-07-30T15:31:13.881Z,9.35
2018-07-30T15:33:42.414Z,11.40
2018-07-30T15:36:10.871Z,9.78
2018-07-30T15:38:39.622Z,9.58
2018-07-30T15:41:08.246Z,13.80
2018-07-30T15:43:36.698Z,10.72
2018-07-30T15:46:05.277Z,10.30
2018-07-30T15:48:34.670Z,12.58
2018-07-30T15:51:03.491Z,11.35
2018-07-30T15:53:32.123Z,13.43
2018-07-30T15:56:01.925Z,12.10
2018-07-30T15:58:30.492Z,13.08
2018-07-30T16:00:59.020Z,12.13
2018-07-30T16:03:27.947Z,12.85
2018-07-30T16:05:56.529Z,11.25
2018-07-30T16:08:25.497Z,11.40
2018-07-30T16:10:55.296Z,13.72
2018-07-30T16:13:23.893Z,14.90
2018-07-30T16:15:52.433Z,13.98
2018-07-30T16:18:20.997Z,13.75
2018-07-30T16:20:49.530Z,10.98
2018-07-30T16:23:18.083Z,15.28
2018-07-30T16:25:46.590Z,15.18
2018-07-30T16:28:15.049Z,17.82
2018-07-30T16:30:44.726Z,14.98
2018-07-30T16:33:13.259Z,11.53
2018-07-30T16:35:43.474Z,12.35
2018-07-30T16:38:12.654Z,15.45
2018-07-30T16:40:41.363Z,12.93
2018-07-30T16:43:09.858Z,20.88
2018-07-30T16:45:38.481Z,12.70
2018-07-30T16:48:07.730Z,12.00
2018-07-30T16:50:36.317Z,12.78
2018-07-30T16:53:04.841Z,15.90
2018-07-30T16:55:34.029Z,16.30
2018-07-30T16:58:02.508Z,13.85
2018-07-30T17:00:31.537Z,12.00
2018-07-30T17:03:01.007Z,12.98
2018-07-30T17:05:29.565Z,11.55
2018-07-30T17:07:58.027Z,15.88
2018-07-30T17:10:26.817Z,11.73
2018-07-30T17:12:55.613Z,12.07
2018-07-30T17:15:24.193Z,13.15
2018-07-30T17:17:53.463Z,13.60
2018-07-30T17:20:22.076Z,13.15
2018-07-30T17:22:50.501Z,10.20
2018-07-30T17:25:19.236Z,11.40
2018-07-30T17:27:47.729Z,12.05
2018-07-30T17:30:16.902Z,13.70
2018-07-30T17:32:46.155Z,11.08
2018-07-30T17:35:14.713Z,13.38
2018-07-30T17:37:43.185Z,10.45
2018-07-30T17:40:12.256Z,14.63
2018-07-30T17:42:40.739Z,12.45
2018-07-30T17:45:12.113Z,12.58
2018-07-30T17:47:40.921Z,16.40
2018-07-30T17:50:10.035Z,14.25
2018-07-30T17:52:45.471Z,13.38
2018-07-30T17:55:15.858Z,10.32
2018-07-30T17:57:44.309Z,12.40
2018-07-30T18:00:13.119Z,13.38
2018-07-30T18:02:41.889Z,13.18
2018-07-30T18:05:10.345Z,10.65
2018-07-30T18:07:48.379Z,12.37
2018-07-30T18:10:16.921Z,9.03
2018-07-30T18:12:46.169Z,13.60
2018-07-30T18:15:17.622Z,10.40
2018-07-30T18:17:46.945Z,8.98
2018-07-30T18:20:15.595Z,14.90
2018-07-30T18:22:44.592Z,11.40
2018-07-30T18:25:13.106Z,12.50
2018-07-30T18:27:41.560Z,15.95
2018-07-30T18:30:10.497Z,10.93
2018-07-30T18:32:39.281Z,14.03
2018-07-30T18:35:08.944Z,12.35
2018-07-30T18:37:38.090Z,14.38
2018-07-30T18:40:06.592Z,12.73
2018-07-30T18:42:35.070Z,13.38
2018-07-30T18:45:04.455Z,13.70
2018-07-30T18:47:32.970Z,12.23
2018-07-30T18:50:01.409Z,12.33
2018-07-30T18:52:31.428Z,11.75
2018-07-30T18:55:00.953Z,11.73
2018-07-30T18:57:29.487Z,14.68
2018-07-30T18:59:58.101Z,10.13
2018-07-30T19:02:26.600Z,12.70
2018-07-30T19:04:55.073Z,12.15
2018-07-30T19:07:23.941Z,12.33
2018-07-30T19:09:52.430Z,11.25
2018-07-30T19:12:20.908Z,12.25
2018-07-30T19:14:49.595Z,12.20
2018-07-30T19:17:18.061Z,10.10
2018-07-30T19:19:46.921Z,11.85
2018-07-30T19:22:15.460Z,10.55
2018-07-30T19:24:44.871Z,12.15
2018-07-30T19:27:13.339Z,10.90
2018-07-30T19:29:42.031Z,12.13
2018-07-30T19:32:10.774Z,10.60
2018-07-30T19:34:39.238Z,10.63
2018-07-30T19:37:08.131Z,10.15
2018-07-30T19:39:36.613Z,10.70
2018-07-30T19:42:05.127Z,12.30
2018-07-30T19:44:34.007Z,11.25
2018-07-30T19:47:02.665Z,10.63
2018-07-30T19:49:31.092Z,9.28
2018-07-30T19:52:00.490Z,10.80
2018-07-30T19:54:29.733Z,10.45
2018-07-30T19:56:59.026Z,10.32
2018-07-30T19:59:27.678Z,11.80
2018-07-30T20:01:56.201Z,11.28
2018-07-30T20:04:24.710Z,11.90
2018-07-30T20:06:53.692Z,13.22
2018-07-30T20:09:22.220Z,11.65
2018-07-30T20:11:50.766Z,10.45
2018-07-30T20:14:19.889Z,10.28
2018-07-30T20:16:48.383Z,13.98
2018-07-30T20:19:17.797Z,11.83
2018-07-30T20:21:46.861Z,13.85
2018-07-30T20:24:15.367Z,13.55
2018-07-30T20:26:43.816Z,11.73
2018-07-30T20:29:12.612Z,13.43
2018-07-30T20:31:41.252Z,10.18
2018-07-30T20:34:09.718Z,12.10
2018-07-30T20:36:38.730Z,13.78
2018-07-30T20:39:11.347Z,10.75
2018-07-30T20:41:40.410Z,10.13
2018-07-30T20:44:08.895Z,10.05
2018-07-30T20:46:37.709Z,10.70
2018-07-30T20:49:06.866Z,10.15
2018-07-30T20:51:35.341Z,12.82
2018-07-30T20:54:04.237Z,11.73
2018-07-30T20:56:33.373Z,10.95
2018-07-30T20:59:02.332Z,9.73
2018-07-30T21:01:30.782Z,8.73
2018-07-30T21:04:00.357Z,8.35
2018-07-30T21:06:28.997Z,8.78
2018-07-30T21:08:57.606Z,9.33
2018-07-30T21:11:26.964Z,8.45
2018-07-30T21:13:55.429Z,10.00
2018-07-30T21:16:24.257Z,8.83
2018-07-30T21:18:53.075Z,8.68
2018-07-30T21:21:21.926Z,8.58
2018-07-30T21:23:50.533Z,8.75
2018-07-30T21:26:19.752Z,9.25
2018-07-30T21:28:48.270Z,8.30
2018-07-30T21:31:16.776Z,10.55
2018-07-30T21:33:45.809Z,10.30
2018-07-30T21:36:14.353Z,8.65
2018-07-30T21:38:42.811Z,8.93
2018-07-30T21:41:11.873Z,8.33
2018-07-30T21:43:40.375Z,10.45
2018-07-30T21:46:08.901Z,11.88
2018-07-30T21:48:37.809Z,8.65
2018-07-30T21:51:06.839Z,9.58
2018-07-30T21:53:35.499Z,8.93
2018-07-30T21:56:04.283Z,11.95
2018-07-30T21:58:32.917Z,8.95
2018-07-30T22:01:01.487Z,9.70
2018-07-30T22:03:30.945Z,10.38
2018-07-30T22:06:01.233Z,9.03
2018-07-30T22:08:30.621Z,9.45
2018-07-30T22:10:59.526Z,9.05
2018-07-30T22:13:28.025Z,9.83
2018-07-30T22:15:56.460Z,10.08
2018-07-30T22:18:25.217Z,8.93
2018-07-30T22:20:54.370Z,9.98
2018-07-30T22:23:23.107Z,10.95
2018-07-30T22:25:52.392Z,9.03
2018-07-30T22:28:20.881Z,10.93
2018-07-30T22:30:49.359Z,10.63
2018-07-30T22:33:18.923Z,9.88
2018-07-30T22:35:47.465Z,12.13
2018-07-30T22:38:15.909Z,9.90
2018-07-30T22:40:44.925Z,10.25
2018-07-30T22:43:13.451Z,11.08
2018-07-30T22:45:41.938Z,12.03
2018-07-30T22:48:10.677Z,12.05
2018-07-30T22:50:39.165Z,14.53
2018-07-30T22:53:07.641Z,11.00
2018-07-30T22:55:36.938Z,12.20
2018-07-30T22:58:06.018Z,12.40
2018-07-30T23:00:34.836Z,10.80
2018-07-30T23:03:04.013Z,13.43
2018-07-30T23:05:32.508Z,12.40
2018-07-30T23:08:01.387Z,13.75
2018-07-30T23:10:30.158Z,14.23
2018-07-30T23:12:58.713Z,12.95
2018-07-30T23:15:27.623Z,13.18
2018-07-30T23:17:56.470Z,13.75
2018-07-30T23:20:24.934Z,14.55
2018-07-30T23:22:53.385Z,13.45
2018-07-30T23:25:22.490Z,14.38
2018-07-30T23:27:51.121Z,14.03
2018-07-30T23:30:19.611Z,15.18
2018-07-30T23:32:48.549Z,14.95
2018-07-30T23:35:17.067Z,14.75
2018-07-30T23:37:45.617Z,16.35
2018-07-30T23:40:16.190Z,15.08
2018-07-30T23:42:44.677Z,14.87
2018-07-30T23:45:13.126Z,14.75
2018-07-30T23:47:41.934Z,16.27
2018-07-30T23:50:10.510Z,16.48
2018-07-30T23:52:38.949Z,14.60
2018-07-30T23:55:07.998Z,14.93
2018-07-30T23:57:36.497Z,15.32
